Time;durP1;ratioP1;P1;durP2;ratioP2;P2;SDS_P1;SDS_P2;PMS_P1;PMS_P2;Temp;Humidity;BMP_temperature;BMP_pressure;BME280_temperature;BME280_humidity;BME280_pressure;Samples;Min_cycle;Max_cycle;Signal;HPM_P1;HPM_P2
2023/10/26 00:02:13;;;;;;;11.60;10.50;;;12.60;99.90;;;;;;5074814;28;20254;-82
2023/10/26 00:04:40;;;;;;;11.07;10.15;;;12.60;99.90;;;;;;5067903;28;20236;-77
2023/10/26 00:07:07;;;;;;;11.35;10.30;;;12.70;99.90;;;;;;5074911;28;20311;-82
2023/10/26 00:09:33;;;;;;;11.38;10.18;;;12.60;99.90;;;;;;5075138;28;20303;-83
2023/10/26 00:12:02;;;;;;;14.05;10.05;;;12.60;99.90;;;;;;5075808;28;20250;-82
2023/10/26 00:14:29;;;;;;;11.55;10.55;;;12.60;99.90;;;;;;5075557;28;20319;-76
2023/10/26 00:16:56;;;;;;;14.45;10.57;;;12.50;99.90;;;;;;5075979;28;20734;-76
2023/10/26 00:19:23;;;;;;;11.43;10.43;;;12.60;99.90;;;;;;5076225;28;20212;-82
2023/10/26 00:21:52;;;;;;;10.20;9.30;;;12.60;99.90;;;;;;5076369;28;20314;-81
2023/10/26 00:24:19;;;;;;;12.00;10.80;;;12.60;99.90;;;;;;5075524;28;20248;-76
2023/10/26 00:26:46;;;;;;;12.55;11.45;;;12.60;99.90;;;;;;5076087;28;20263;-81
2023/10/26 00:29:14;;;;;;;13.55;12.13;;;12.60;99.90;;;;;;5075320;28;20220;-83
2023/10/26 00:31:41;;;;;;;12.98;11.85;;;12.50;99.90;;;;;;5076218;28;20319;-82
2023/10/26 00:34:08;;;;;;;12.07;10.95;;;12.50;99.90;;;;;;5075245;28;20553;-77
2023/10/26 00:36:38;;;;;;;12.02;10.93;;;12.50;99.90;;;;;;5075972;28;20273;-78
2023/10/26 00:39:05;;;;;;;12.48;11.40;;;12.50;99.90;;;;;;5075644;28;20228;-77
2023/10/26 00:41:32;;;;;;;10.25;9.35;;;12.50;99.90;;;;;;5075954;28;20236;-77
2023/10/26 00:44:01;;;;;;;12.57;11.48;;;12.60;99.90;;;;;;5076004;28;20311;-77
2023/10/26 00:46:35;;;;;;;12.50;11.15;;;12.60;99.90;;;;;;5075519;28;20228;-77
2023/10/26 00:49:03;;;;;;;13.35;11.55;;;12.60;99.90;;;;;;5075814;28;20235;-83
2023/10/26 00:51:30;;;;;;;15.45;11.05;;;12.50;99.90;;;;;;5075339;28;20224;-82
2023/10/26 00:53:57;;;;;;;11.43;10.43;;;12.50;99.90;;;;;;5075644;28;20255;-82
2023/10/26 00:56:26;;;;;;;12.55;11.45;;;12.50;99.90;;;;;;5074830;28;20311;-77
2023/10/26 00:58:54;;;;;;;11.57;10.48;;;12.40;99.90;;;;;;5075828;28;20247;-78
2023/10/26 01:01:21;;;;;;;11.85;10.75;;;12.40;99.90;;;;;;5075208;28;20319;-77
2023/10/26 01:03:52;;;;;;;12.40;11.23;;;12.50;99.90;;;;;;5075649;28;20307;-77
2023/10/26 01:06:19;;;;;;;13.30;12.10;;;12.40;99.90;;;;;;5074774;28;21036;-78
2023/10/26 01:08:46;;;;;;;14.40;11.90;;;12.40;99.90;;;;;;5075339;28;20247;-78
2023/10/26 01:11:13;;;;;;;15.05;12.45;;;12.30;99.90;;;;;;5074765;28;20223;-78
2023/10/26 01:13:40;;;;;;;12.52;11.38;;;12.40;99.90;;;;;;5075559;28;20259;-82
2023/10/26 01:16:07;;;;;;;13.93;12.52;;;12.40;99.90;;;;;;5075320;28;20235;-82
2023/10/26 01:18:34;;;;;;;13.13;11.93;;;12.40;99.90;;;;;;5075059;28;20302;-77
2023/10/26 01:21:02;;;;;;;12.73;11.52;;;12.40;99.90;;;;;;5075289;28;20250;-77
2023/10/26 01:23:31;;;;;;;14.60;11.70;;;12.40;99.90;;;;;;5074495;28;20302;-82
2023/10/26 01:25:59;;;;;;;12.60;11.30;;;12.40;99.90;;;;;;5075297;28;20228;-82
2023/10/26 01:28:26;;;;;;;15.73;14.13;;;12.30;99.90;;;;;;5074596;28;20289;-82
2023/10/26 01:30:53;;;;;;;22.92;13.35;;;12.30;99.90;;;;;;5075067;28;20308;-78
2023/10/26 01:33:22;;;;;;;14.35;13.10;;;12.30;99.90;;;;;;5074420;28;20224;-82
2023/10/26 01:35:49;;;;;;;16.15;12.75;;;12.30;99.90;;;;;;5074910;28;20235;-82
2023/10/26 01:38:16;;;;;;;13.13;11.70;;;12.20;99.90;;;;;;5073847;28;20228;-82
2023/10/26 01:40:44;;;;;;;14.45;13.05;;;12.20;99.90;;;;;;5075114;28;20303;-82
2023/10/26 01:43:11;;;;;;;15.93;14.35;;;12.20;99.90;;;;;;5074648;28;20315;-77
2023/10/26 01:45:38;;;;;;;15.20;13.55;;;12.20;99.90;;;;;;5074401;28;20714;-77
2023/10/26 01:48:06;;;;;;;16.13;14.52;;;12.20;99.90;;;;;;5074759;28;20315;-83
2023/10/26 01:50:34;;;;;;;14.90;13.40;;;12.20;99.90;;;;;;5074289;28;20258;-82
2023/10/26 01:53:01;;;;;;;15.27;13.82;;;12.20;99.90;;;;;;5074693;28;20224;-82
2023/10/26 01:55:28;;;;;;;15.00;13.60;;;12.20;99.90;;;;;;5073629;28;20310;-77
2023/10/26 01:57:57;;;;;;;16.65;15.13;;;12.20;99.90;;;;;;5074578;28;20754;-77
2023/10/26 02:00:24;;;;;;;15.93;13.77;;;12.20;99.90;;;;;;5073741;28;20219;-77
2023/10/26 02:02:51;;;;;;;15.75;14.15;;;12.20;99.90;;;;;;5074548;28;20282;-82
2023/10/26 02:05:18;;;;;;;16.15;14.55;;;12.20;99.90;;;;;;5073979;28;20228;-82
2023/10/26 02:07:48;;;;;;;16.83;14.77;;;12.20;99.90;;;;;;5073187;28;20231;-82
2023/10/26 02:10:15;;;;;;;14.95;13.40;;;12.20;99.90;;;;;;5074149;28;20245;-77
2023/10/26 02:12:42;;;;;;;15.88;14.27;;;12.20;99.90;;;;;;5073536;28;20228;-82
2023/10/26 02:15:12;;;;;;;17.67;15.85;;;12.20;99.90;;;;;;5074103;28;20227;-82
2023/10/26 02:17:39;;;;;;;15.63;14.18;;;12.10;99.90;;;;;;5073793;28;20215;-82
2023/10/26 02:20:07;;;;;;;16.60;15.10;;;12.10;99.90;;;;;;5074070;28;20254;-82
2023/10/26 02:22:34;;;;;;;16.83;15.27;;;12.20;99.90;;;;;;5073477;28;20292;-82
2023/10/26 02:25:01;;;;;;;16.48;14.98;;;12.20;99.90;;;;;;5074065;28;20274;-77
2023/10/26 02:27:28;;;;;;;15.65;14.02;;;12.10;99.90;;;;;;5073682;28;20307;-78
2023/10/26 02:29:55;;;;;;;16.65;14.85;;;12.10;99.90;;;;;;5073878;28;20307;-77
2023/10/26 02:32:23;;;;;;;16.10;14.50;;;12.10;99.90;;;;;;5073381;28;20310;-82
2023/10/26 02:34:50;;;;;;;15.38;13.80;;;12.20;99.90;;;;;;5073716;28;20323;-83
2023/10/26 02:37:19;;;;;;;15.43;13.82;;;12.10;99.90;;;;;;5073825;28;20643;-77
2023/10/26 02:39:46;;;;;;;15.77;14.27;;;12.10;99.90;;;;;;5072561;28;20238;-77
2023/10/26 02:42:13;;;;;;;14.80;13.50;;;12.20;99.90;;;;;;5073667;28;20228;-77
2023/10/26 02:44:40;;;;;;;14.77;13.10;;;12.20;99.90;;;;;;5072799;28;20307;-77
2023/10/26 02:47:07;;;;;;;15.77;14.25;;;12.20;99.90;;;;;;5073631;28;20616;-82
2023/10/26 02:49:35;;;;;;;16.08;14.27;;;12.20;99.90;;;;;;5073160;28;20311;-77
2023/10/26 02:52:02;;;;;;;16.40;14.70;;;12.20;99.90;;;;;;5072309;28;20246;-77
2023/10/26 02:54:29;;;;;;;17.20;15.50;;;12.30;99.90;;;;;;5072690;28;20223;-78
2023/10/26 02:56:56;;;;;;;16.20;14.65;;;12.20;99.90;;;;;;5073199;28;20254;-82
2023/10/26 02:59:23;;;;;;;14.20;12.80;;;12.20;99.90;;;;;;5073536;28;20306;-77
2023/10/26 03:01:50;;;;;;;15.68;14.10;;;12.30;99.90;;;;;;5072597;28;20293;-77
2023/10/26 03:04:17;;;;;;;17.20;15.45;;;12.20;99.90;;;;;;5073143;28;20561;-81
2023/10/26 03:06:45;;;;;;;15.57;13.90;;;12.20;99.90;;;;;;5073039;28;20318;-82
2023/10/26 03:09:13;;;;;;;16.30;14.48;;;12.30;99.90;;;;;;5073415;28;20311;-82
2023/10/26 03:11:40;;;;;;;16.63;15.10;;;12.30;99.90;;;;;;5072740;28;20569;-77
2023/10/26 03:14:07;;;;;;;17.83;15.93;;;12.20;99.90;;;;;;5073205;28;20216;-77
2023/10/26 03:16:34;;;;;;;17.48;15.77;;;12.20;99.90;;;;;;5062875;28;20533;-82
2023/10/26 03:19:01;;;;;;;17.25;15.45;;;12.20;99.90;;;;;;5072963;28;20242;-77
2023/10/26 03:21:32;;;;;;;16.83;15.23;;;12.20;99.90;;;;;;5073012;28;20681;-77
2023/10/26 03:24:00;;;;;;;17.85;16.15;;;12.20;99.90;;;;;;5072892;28;20216;-82
2023/10/26 03:26:27;;;;;;;15.93;14.30;;;12.20;99.90;;;;;;5072835;28;20224;-81
2023/10/26 03:28:54;;;;;;;17.60;15.90;;;12.20;99.90;;;;;;5072964;28;20640;-77
2023/10/26 03:31:21;;;;;;;16.23;14.70;;;12.20;99.90;;;;;;5073297;28;20262;-77
2023/10/26 03:33:48;;;;;;;16.63;14.95;;;12.30;99.90;;;;;;5072625;28;20219;-82
2023/10/26 03:36:16;;;;;;;16.05;14.45;;;12.20;99.90;;;;;;5072808;28;20281;-77
2023/10/26 03:38:43;;;;;;;17.17;15.43;;;12.20;99.90;;;;;;5072530;28;20236;-77
2023/10/26 03:41:12;;;;;;;18.60;15.40;;;12.20;99.90;;;;;;5073283;28;20220;-82
2023/10/26 03:43:38;;;;;;;16.20;14.57;;;12.30;99.90;;;;;;5072747;28;20262;-82
2023/10/26 03:46:05;;;;;;;18.88;16.88;;;12.30;99.90;;;;;;5072791;28;20334;-77
2023/10/26 03:48:34;;;;;;;14.57;13.07;;;12.20;99.90;;;;;;5073474;28;20686;-82
2023/10/26 03:51:01;;;;;;;16.88;15.18;;;12.30;99.90;;;;;;5073373;28;20619;-82
2023/10/26 03:53:28;;;;;;;16.60;14.73;;;12.30;99.90;;;;;;5073357;28;20254;-82
2023/10/26 03:55:57;;;;;;;16.08;14.48;;;12.30;99.90;;;;;;5072630;28;20251;-77
2023/10/26 03:58:26;;;;;;;18.00;15.70;;;12.40;99.90;;;;;;5072834;28;20299;-78
2023/10/26 04:00:52;;;;;;;17.65;15.38;;;12.40;99.90;;;;;;5072265;28;20224;-78
2023/10/26 04:03:20;;;;;;;18.40;16.60;;;12.40;99.90;;;;;;5072950;28;20243;-82
2023/10/26 04:05:47;;;;;;;18.75;16.85;;;12.40;99.90;;;;;;5072359;28;20232;-78
2023/10/26 04:08:13;;;;;;;20.30;17.30;;;12.40;99.90;;;;;;5073792;28;20277;-82
2023/10/26 04:10:42;;;;;;;18.13;16.33;;;12.40;99.90;;;;;;5073536;28;20220;-82
2023/10/26 04:13:09;;;;;;;19.30;17.20;;;12.40;99.90;;;;;;5073675;28;20220;-82
2023/10/26 04:15:38;;;;;;;18.55;16.73;;;12.40;99.90;;;;;;5073801;28;20224;-77
2023/10/26 04:18:10;;;;;;;19.05;17.15;;;12.50;99.90;;;;;;5071664;28;20254;-82
2023/10/26 04:20:37;;;;;;;20.90;17.00;;;12.50;99.90;;;;;;5072262;28;20602;-82
2023/10/26 04:23:04;;;;;;;17.98;16.08;;;12.50;99.90;;;;;;5072065;28;20227;-78
2023/10/26 04:25:31;;;;;;;16.15;14.43;;;12.50;99.90;;;;;;5072296;28;20311;-78
2023/10/26 04:27:58;;;;;;;16.52;14.77;;;12.50;99.90;;;;;;5072291;28;20262;-82
2023/10/26 04:30:25;;;;;;;16.90;15.23;;;12.50;99.90;;;;;;5063522;28;20313;-82
2023/10/26 04:32:54;;;;;;;15.75;14.25;;;12.50;99.90;;;;;;5075470;28;20250;-80
2023/10/26 04:35:21;;;;;;;15.80;14.30;;;12.50;99.90;;;;;;5075935;28;20228;-78
2023/10/26 04:37:47;;;;;;;14.52;13.13;;;12.50;99.90;;;;;;5075622;28;20232;-82
2023/10/26 04:40:15;;;;;;;15.38;13.77;;;12.50;99.90;;;;;;5075947;28;20224;-82
2023/10/26 04:42:42;;;;;;;20.60;15.15;;;12.50;99.90;;;;;;5076159;28;20224;-82
2023/10/26 04:45:09;;;;;;;17.52;15.82;;;12.50;99.90;;;;;;5075309;28;20250;-82
2023/10/26 04:47:36;;;;;;;16.67;14.77;;;12.60;99.90;;;;;;5076090;28;20297;-82
2023/10/26 04:50:07;;;;;;;17.58;15.77;;;12.50;99.90;;;;;;5074851;28;20558;-78
2023/10/26 04:52:34;;;;;;;16.30;14.70;;;12.50;99.90;;;;;;5075829;28;20616;-78
2023/10/26 04:55:01;;;;;;;16.33;14.43;;;12.50;99.90;;;;;;5075156;28;20220;-77
2023/10/26 04:57:31;;;;;;;16.92;15.20;;;12.50;99.90;;;;;;5075210;28;20227;-77
2023/10/26 04:59:58;;;;;;;18.77;15.43;;;12.60;99.90;;;;;;5074388;28;20230;-78
2023/10/26 05:02:25;;;;;;;16.63;15.02;;;12.50;99.90;;;;;;5061124;28;20597;-77
2023/10/26 05:04:52;;;;;;;17.40;15.68;;;12.50;99.90;;;;;;5075513;28;20223;-82
2023/10/26 05:07:22;;;;;;;18.08;14.20;;;12.50;99.90;;;;;;5075839;28;20285;-81
2023/10/26 05:09:49;;;;;;;15.82;14.23;;;12.50;99.90;;;;;;5075255;28;20303;-81
2023/10/26 05:12:16;;;;;;;16.20;14.40;;;12.50;99.90;;;;;;5075180;28;20693;-82
2023/10/26 05:14:43;;;;;;;15.00;13.50;;;12.50;99.90;;;;;;5074827;28;20242;-81
2023/10/26 05:17:10;;;;;;;14.90;13.40;;;12.50;99.90;;;;;;5075280;28;20310;-82
2023/10/26 05:19:36;;;;;;;16.35;14.60;;;12.50;99.90;;;;;;5074424;28;20311;-82
2023/10/26 05:22:03;;;;;;;14.80;13.40;;;12.50;99.90;;;;;;5075275;28;20303;-82
2023/10/26 05:24:32;;;;;;;15.13;13.73;;;12.50;99.90;;;;;;5074580;28;20466;-83
2023/10/26 05:26:59;;;;;;;14.98;13.48;;;12.50;99.90;;;;;;5075286;28;20243;-81
2023/10/26 05:29:29;;;;;;;13.57;12.05;;;12.50;99.90;;;;;;5075367;28;20219;-82
2023/10/26 05:31:57;;;;;;;13.85;12.45;;;12.40;99.90;;;;;;5074558;28;20216;-77
2023/10/26 05:34:24;;;;;;;12.80;11.50;;;12.50;99.90;;;;;;5074846;28;20726;-81
2023/10/26 05:36:51;;;;;;;13.45;12.25;;;12.50;99.90;;;;;;5074387;28;20220;-82
2023/10/26 05:39:18;;;;;;;16.63;14.95;;;12.50;99.90;;;;;;5074839;28;20234;-82
2023/10/26 05:41:47;;;;;;;14.00;12.68;;;12.50;99.90;;;;;;5074346;28;20220;-78
2023/10/26 05:44:14;;;;;;;14.45;13.05;;;12.40;99.90;;;;;;5074803;28;20226;-78
2023/10/26 05:46:41;;;;;;;13.45;12.07;;;12.50;99.90;;;;;;5077020;28;20243;-82
2023/10/26 05:49:08;;;;;;;14.57;12.95;;;12.50;99.90;;;;;;5077572;28;20216;-82
2023/10/26 05:51:35;;;;;;;12.85;11.63;;;12.50;99.90;;;;;;5078190;28;20226;-82
2023/10/26 05:54:02;;;;;;;16.92;13.07;;;12.40;99.90;;;;;;5078211;28;20230;-83
2023/10/26 05:56:29;;;;;;;14.18;12.73;;;12.50;99.90;;;;;;5074904;28;20228;-77
2023/10/26 05:58:57;;;;;;;12.77;11.52;;;12.50;99.90;;;;;;5074259;28;20248;-82
2023/10/26 06:01:24;;;;;;;14.63;13.05;;;12.40;99.90;;;;;;5074618;28;20319;-77
2023/10/26 06:03:51;;;;;;;13.88;12.48;;;12.30;99.90;;;;;;5063787;28;20262;-77
2023/10/26 06:06:18;;;;;;;15.80;14.23;;;12.30;99.90;;;;;;5073843;28;20908;-78
2023/10/26 06:08:46;;;;;;;12.50;11.20;;;12.30;99.90;;;;;;5073765;28;20220;-77
2023/10/26 06:11:13;;;;;;;14.88;12.60;;;12.30;99.90;;;;;;5074590;28;20215;-82
2023/10/26 06:13:40;;;;;;;14.70;11.85;;;12.30;99.90;;;;;;5074433;28;20686;-82
2023/10/26 06:16:12;;;;;;;13.30;12.00;;;12.30;99.90;;;;;;5073707;28;20231;-82
2023/10/26 06:18:39;;;;;;;10.90;9.77;;;12.30;99.90;;;;;;5074035;28;20541;-82
2023/10/26 06:21:07;;;;;;;12.07;10.95;;;12.40;99.90;;;;;;5073995;28;20246;-82
2023/10/26 06:23:34;;;;;;;12.40;11.20;;;12.40;99.90;;;;;;5074052;28;20224;-77
2023/10/26 06:26:03;;;;;;;12.50;11.25;;;12.40;99.90;;;;;;5073293;28;20224;-82
2023/10/26 06:28:31;;;;;;;11.90;10.80;;;12.30;99.90;;;;;;5074216;28;20303;-81
2023/10/26 06:31:10;;;;;;;13.77;12.48;;;12.40;99.90;;;;;;5073542;28;20553;-78
2023/10/26 06:33:37;;;;;;;12.55;11.05;;;12.40;99.90;;;;;;5074020;28;20224;-77
2023/10/26 06:36:04;;;;;;;12.55;11.23;;;12.40;99.90;;;;;;5073225;28;20232;-78
2023/10/26 06:38:31;;;;;;;12.68;11.48;;;12.40;99.90;;;;;;5073805;28;20223;-78
2023/10/26 06:41:08;;;;;;;12.77;11.43;;;12.40;99.90;;;;;;5073320;28;20236;-77
2023/10/26 06:43:36;;;;;;;11.32;10.25;;;12.40;99.90;;;;;;5073637;28;20238;-83
2023/10/26 06:46:03;;;;;;;12.55;11.35;;;12.40;99.90;;;;;;5073462;28;20290;-83
2023/10/26 06:48:31;;;;;;;13.00;11.83;;;12.40;99.90;;;;;;5073606;28;20225;-83
2023/10/26 06:51:19;;;;;;;13.32;12.00;;;12.40;99.90;;;;;;5073997;28;20573;-82
2023/10/26 06:53:46;;;;;;;12.52;11.27;;;12.40;99.90;;;;;;5068089;28;20743;-82
2023/10/26 06:56:13;;;;;;;12.48;11.27;;;12.40;99.90;;;;;;5073337;28;20307;-82
2023/10/26 06:58:42;;;;;;;13.18;11.70;;;12.40;99.90;;;;;;5072811;28;20297;-83
2023/10/26 07:01:09;;;;;;;13.93;10.90;;;12.40;99.90;;;;;;5073246;28;20216;-83
2023/10/26 07:03:38;;;;;;;11.73;10.55;;;12.40;99.90;;;;;;5073580;28;20216;-83
2023/10/26 07:06:29;;;;;;;11.93;10.73;;;12.50;99.90;;;;;;5076571;28;20220;-82
2023/10/26 07:12:17;;;;;;;13.13;11.15;;;12.50;99.90;;;;;;5060358;28;20224;-82
2023/10/26 07:18:09;;;;;;;10.80;9.80;;;12.50;99.90;;;;;;5052261;28;20227;-83
2023/10/26 07:23:58;;;;;;;13.20;11.90;;;12.50;99.90;;;;;;5060045;28;20227;-83
2023/10/26 07:26:27;;;;;;;11.00;9.93;;;12.50;99.90;;;;;;5071569;28;20586;-83
2023/10/26 07:29:24;;;;;;;10.82;9.82;;;12.50;99.90;;;;;;5072636;28;20578;-83
2023/10/26 07:34:55;;;;;;;11.50;10.43;;;12.60;99.90;;;;;;5057651;28;20546;-83
2023/10/26 07:37:23;;;;;;;12.50;11.27;;;12.60;99.90;;;;;;5033993;28;20293;-83
2023/10/26 07:39:56;;;;;;;12.65;11.45;;;12.60;99.90;;;;;;5071346;28;20312;-83
2023/10/26 07:42:30;;;;;;;12.93;11.35;;;12.60;99.90;;;;;;5062298;28;20242;-83
2023/10/26 07:45:09;;;;;;;13.52;12.27;;;12.60;99.90;;;;;;5096207;22;20616;-82
2023/10/26 07:47:36;;;;;;;12.73;11.52;;;12.60;99.90;;;;;;5046916;28;20236;-82
2023/10/26 07:50:03;;;;;;;11.23;10.13;;;12.60;99.90;;;;;;5052512;28;20229;-82
2023/10/26 07:52:34;;;;;;;12.30;11.13;;;12.60;99.90;;;;;;5052934;28;20220;-81
2023/10/26 07:55:09;;;;;;;12.02;10.88;;;12.60;99.90;;;;;;5052375;28;20304;-82
2023/10/26 07:57:41;;;;;;;13.85;12.38;;;12.60;99.90;;;;;;5052954;28;20224;-82
2023/10/26 08:00:11;;;;;;;13.33;11.93;;;12.60;99.90;;;;;;5052532;28;20217;-81
2023/10/26 08:02:38;;;;;;;13.13;11.93;;;12.70;99.90;;;;;;5052698;28;20467;-81
2023/10/26 08:05:05;;;;;;;12.63;11.30;;;12.70;99.90;;;;;;5053705;28;20531;-81
2023/10/26 08:07:34;;;;;;;15.77;13.57;;;12.70;99.90;;;;;;5056792;28;20229;-82
2023/10/26 08:10:00;;;;;;;13.13;11.82;;;12.70;99.90;;;;;;5055816;28;20235;-82
2023/10/26 08:12:28;;;;;;;12.27;11.07;;;12.70;99.90;;;;;;5019598;28;20227;-82
2023/10/26 08:14:57;;;;;;;12.20;11.02;;;12.70;99.90;;;;;;5056432;28;20633;-82
2023/10/26 08:17:25;;;;;;;14.45;12.98;;;12.70;99.90;;;;;;5056656;28;20283;-82
2023/10/26 08:19:54;;;;;;;13.43;12.02;;;12.70;99.90;;;;;;5055889;28;20313;-82
2023/10/26 08:22:22;;;;;;;13.00;11.75;;;12.70;99.90;;;;;;5056360;28;20231;-82
2023/10/26 08:24:50;;;;;;;14.03;12.63;;;12.80;99.90;;;;;;5055995;28;20229;-82
2023/10/26 08:27:18;;;;;;;13.73;12.43;;;12.80;99.90;;;;;;5055985;28;20463;-82
2023/10/26 08:29:44;;;;;;;14.38;12.90;;;12.80;99.90;;;;;;5056230;28;20491;-82
2023/10/26 08:32:11;;;;;;;13.20;11.90;;;12.80;99.90;;;;;;5056238;28;20308;-82
2023/10/26 08:34:39;;;;;;;14.88;13.40;;;12.80;99.90;;;;;;5055782;28;20290;-77
2023/10/26 08:37:06;;;;;;;12.47;11.10;;;12.80;99.90;;;;;;5056716;28;20216;-84
2023/10/26 08:39:32;;;;;;;14.50;13.05;;;12.80;99.90;;;;;;5055919;28;20486;-82
2023/10/26 08:42:01;;;;;;;14.95;13.48;;;12.90;99.90;;;;;;5057360;28;20221;-82
2023/10/26 08:44:29;;;;;;;13.00;11.75;;;12.90;99.90;;;;;;5057086;28;20245;-82
2023/10/26 08:46:59;;;;;;;14.07;12.60;;;13.00;99.90;;;;;;5055680;28;20255;-81
2023/10/26 08:49:28;;;;;;;15.02;13.57;;;13.00;99.90;;;;;;5056135;28;20848;-81
2023/10/26 08:51:55;;;;;;;15.33;13.93;;;12.90;99.90;;;;;;5055771;28;20220;-77
2023/10/26 08:54:22;;;;;;;14.37;12.37;;;13.00;99.90;;;;;;5056121;28;20463;-77
2023/10/26 08:56:49;;;;;;;13.57;12.27;;;13.00;99.90;;;;;;5055462;28;21011;-77
2023/10/26 08:59:17;;;;;;;12.97;11.77;;;13.00;99.90;;;;;;5056189;28;20459;-76
2023/10/26 09:01:46;;;;;;;13.85;12.50;;;13.10;99.90;;;;;;5055872;28;20984;-76
2023/10/26 09:04:14;;;;;;;13.17;11.93;;;13.10;99.90;;;;;;5056325;28;20224;-76
2023/10/26 09:06:45;;;;;;;12.67;11.37;;;13.10;99.90;;;;;;5055332;28;20501;-81
2023/10/26 09:09:12;;;;;;;13.30;11.75;;;13.10;99.90;;;;;;5055162;28;20487;-76
2023/10/26 09:11:42;;;;;;;11.93;10.83;;;13.10;99.90;;;;;;5055654;28;20256;-77
2023/10/26 09:14:18;;;;;;;12.90;11.60;;;13.10;99.90;;;;;;5032389;28;20474;-77
2023/10/26 09:16:46;;;;;;;13.83;12.50;;;13.10;99.90;;;;;;5051864;28;20516;-77
2023/10/26 09:19:14;;;;;;;14.47;12.90;;;13.10;99.90;;;;;;5058648;28;20471;-76
2023/10/26 09:21:55;;;;;;;12.67;11.47;;;13.10;99.90;;;;;;5061405;28;20463;-76
2023/10/26 09:24:24;;;;;;;12.30;11.20;;;13.20;99.90;;;;;;5061521;28;20463;-77
2023/10/26 09:26:52;;;;;;;12.35;11.23;;;13.20;99.90;;;;;;5056311;28;21004;-81
2023/10/26 09:29:21;;;;;;;11.10;10.00;;;13.20;99.90;;;;;;5055887;28;20252;-77
2023/10/26 09:31:54;;;;;;;11.13;10.03;;;13.20;99.90;;;;;;5056607;28;20614;-78
2023/10/26 09:34:27;;;;;;;11.57;10.45;;;13.20;99.90;;;;;;5057023;28;20779;-77
2023/10/26 09:37:04;;;;;;;14.07;12.70;;;13.20;99.90;;;;;;5056242;28;20320;-77
2023/10/26 09:39:33;;;;;;;12.47;11.30;;;13.20;99.90;;;;;;5055510;28;20546;-77
2023/10/26 09:42:01;;;;;;;13.13;11.90;;;13.30;99.90;;;;;;5055388;28;20635;-81
2023/10/26 09:44:30;;;;;;;12.70;11.57;;;13.20;99.90;;;;;;5055806;28;20477;-82
2023/10/26 09:49:49;;;;;;;13.90;12.50;;;13.30;99.90;;;;;;5051791;28;20447;-77
2023/10/26 09:52:16;;;;;;;13.10;10.27;;;13.30;99.90;;;;;;5055780;28;20463;-82
2023/10/26 09:54:44;;;;;;;12.10;10.93;;;13.30;99.90;;;;;;5055384;28;20529;-82
2023/10/26 09:57:18;;;;;;;15.10;12.27;;;13.30;99.90;;;;;;5032144;28;20464;-82
2023/10/26 09:59:52;;;;;;;12.63;11.43;;;13.30;99.90;;;;;;5054451;28;20467;-82
2023/10/26 10:02:20;;;;;;;12.38;11.18;;;13.30;99.90;;;;;;5057365;28;20467;-77
2023/10/26 10:04:49;;;;;;;12.13;10.93;;;13.30;99.90;;;;;;5056036;28;20229;-77
2023/10/26 10:07:39;;;;;;;11.60;10.40;;;13.30;99.90;;;;;;5065457;28;20530;-81
2023/10/26 10:10:09;;;;;;;11.03;9.90;;;13.30;99.90;;;;;;5063050;28;20479;-83
2023/10/26 10:12:38;;;;;;;13.23;11.93;;;13.30;99.90;;;;;;5055806;28;20491;-82
2023/10/26 10:15:08;;;;;;;12.33;11.23;;;13.30;99.90;;;;;;5058600;28;20794;-82
2023/10/26 10:18:03;;;;;;;11.50;10.40;;;13.30;99.90;;;;;;5055946;28;20467;-77
2023/10/26 10:20:32;;;;;;;11.07;10.07;;;13.30;99.90;;;;;;5045781;28;20455;-78
2023/10/26 10:23:02;;;;;;;11.23;10.23;;;13.30;99.90;;;;;;5054664;28;20485;-78
2023/10/26 10:25:55;;;;;;;12.50;11.30;;;13.30;99.90;;;;;;5054164;28;20467;-77
2023/10/26 10:28:22;;;;;;;12.38;11.10;;;13.40;99.90;;;;;;5053422;28;20499;-77
2023/10/26 10:30:55;;;;;;;12.52;11.32;;;13.40;99.90;;;;;;5054213;28;20220;-78
2023/10/26 10:33:25;;;;;;;12.70;11.50;;;13.40;99.90;;;;;;5054670;28;20225;-77
2023/10/26 10:35:59;;;;;;;12.47;11.17;;;13.40;99.90;;;;;;5053858;28;20482;-78
2023/10/26 10:38:26;;;;;;;11.60;10.43;;;13.50;99.90;;;;;;5035810;28;20494;-77
2023/10/26 10:41:14;;;;;;;15.47;12.50;;;13.50;99.90;;;;;;5045145;28;20455;-77
2023/10/26 10:43:44;;;;;;;12.20;11.10;;;13.50;99.90;;;;;;5053065;28;20573;-77
2023/10/26 10:46:18;;;;;;;13.00;11.67;;;13.50;99.90;;;;;;5053512;28;20475;-83
2023/10/26 10:49:00;;;;;;;13.77;12.47;;;13.50;99.90;;;;;;5053460;28;20494;-77
2023/10/26 10:51:37;;;;;;;16.13;14.17;;;13.60;99.90;;;;;;5054349;28;20862;-82
2023/10/26 10:54:06;;;;;;;15.43;13.93;;;13.60;99.90;;;;;;5059108;28;20462;-77
2023/10/26 10:56:38;;;;;;;14.63;13.23;;;13.60;99.90;;;;;;5039735;28;20970;-77
2023/10/26 10:59:17;;;;;;;13.90;12.60;;;13.60;99.90;;;;;;5058077;28;20542;-81
2023/10/26 11:01:45;;;;;;;14.63;13.20;;;13.60;99.90;;;;;;5045895;28;20467;-83
2023/10/26 11:04:16;;;;;;;13.67;12.57;;;13.60;99.90;;;;;;5054143;28;20962;-83
2023/10/26 11:06:49;;;;;;;14.20;12.80;;;13.60;99.90;;;;;;5045269;28;20506;-81
2023/10/26 11:09:27;;;;;;;13.20;11.90;;;13.60;99.90;;;;;;5055141;28;20466;-82
2023/10/26 11:11:55;;;;;;;16.03;13.73;;;13.60;99.90;;;;;;5057018;28;20483;-82
2023/10/26 11:14:23;;;;;;;16.30;13.40;;;13.60;99.90;;;;;;5056336;28;20493;-83
2023/10/26 11:16:52;;;;;;;12.23;11.03;;;13.60;99.90;;;;;;5055589;28;20465;-77
2023/10/26 11:19:19;;;;;;;13.73;12.43;;;13.60;99.90;;;;;;5055097;28;20467;-77
2023/10/26 11:21:46;;;;;;;15.30;13.80;;;13.60;99.90;;;;;;5054371;28;20479;-77
2023/10/26 11:24:19;;;;;;;15.97;14.33;;;13.60;99.90;;;;;;5053842;28;20529;-77
2023/10/26 11:27:06;;;;;;;14.37;13.00;;;13.60;99.90;;;;;;5054600;28;20459;-77
2023/10/26 11:29:33;;;;;;;13.73;12.50;;;13.60;99.90;;;;;;5055002;28;20520;-78
2023/10/26 11:32:01;;;;;;;11.77;10.67;;;13.60;99.90;;;;;;5053928;28;20455;-77
2023/10/26 11:34:28;;;;;;;12.17;10.97;;;13.60;99.90;;;;;;5054066;28;20904;-76
2023/10/26 11:36:57;;;;;;;12.17;10.97;;;13.60;99.90;;;;;;5053895;28;20471;-78
2023/10/26 11:39:24;;;;;;;10.90;9.97;;;13.60;99.90;;;;;;5056243;28;20466;-77
2023/10/26 11:41:54;;;;;;;11.27;10.17;;;13.60;99.90;;;;;;5057667;28;20471;-77
2023/10/26 11:44:27;;;;;;;12.80;10.73;;;13.70;99.90;;;;;;5058362;28;20478;-82
2023/10/26 11:46:57;;;;;;;11.57;10.27;;;13.70;99.90;;;;;;5058601;28;20512;-82
2023/10/26 11:49:39;;;;;;;13.20;10.97;;;13.70;99.90;;;;;;5059134;28;20475;-82
2023/10/26 11:52:06;;;;;;;11.37;10.23;;;13.70;99.90;;;;;;5058256;28;20474;-83
2023/10/26 11:54:33;;;;;;;13.50;10.77;;;13.70;99.90;;;;;;5058820;28;20562;-83
2023/10/26 11:57:00;;;;;;;11.57;10.43;;;13.70;99.90;;;;;;5058606;28;20550;-83
2023/10/26 11:59:27;;;;;;;12.30;11.10;;;13.70;99.90;;;;;;5059511;28;20550;-83
2023/10/26 12:01:54;;;;;;;11.70;10.13;;;13.70;99.90;;;;;;5059557;28;20548;-83
2023/10/26 12:04:21;;;;;;;12.10;10.90;;;13.80;99.90;;;;;;5059730;28;20986;-83
2023/10/26 12:06:49;;;;;;;11.90;10.80;;;13.80;99.90;;;;;;5059397;28;21028;-83
2023/10/26 12:09:16;;;;;;;10.10;9.20;;;13.80;99.90;;;;;;5058101;28;20471;-83
2023/10/26 12:11:45;;;;;;;11.23;10.23;;;13.80;99.90;;;;;;5057673;28;20471;-83
2023/10/26 12:14:14;;;;;;;9.77;8.77;;;13.80;99.90;;;;;;5057958;28;20585;-83
2023/10/26 12:16:41;;;;;;;10.50;9.53;;;13.80;99.90;;;;;;5058925;28;20815;-83
2023/10/26 12:19:09;;;;;;;12.20;11.00;;;13.80;99.90;;;;;;5058131;28;20459;-83
2023/10/26 12:21:35;;;;;;;11.13;9.73;;;13.80;99.90;;;;;;5058718;28;20544;-83
2023/10/26 12:24:08;;;;;;;9.83;8.90;;;13.80;99.90;;;;;;5059348;28;20984;-80
2023/10/26 12:26:35;;;;;;;10.20;8.80;;;13.80;99.90;;;;;;5061692;28;20459;-84
2023/10/26 12:29:26;;;;;;;9.00;8.30;;;13.80;99.90;;;;;;5062947;28;20470;-82
2023/10/26 12:31:53;;;;;;;8.77;7.87;;;13.90;99.90;;;;;;5060407;28;20474;-82
2023/10/26 12:34:20;;;;;;;11.73;10.60;;;13.90;99.90;;;;;;5061328;28;20490;-77
2023/10/26 12:36:47;;;;;;;10.20;9.20;;;13.90;99.90;;;;;;5057172;28;20552;-77
2023/10/26 12:39:16;;;;;;;9.20;8.30;;;13.90;99.90;;;;;;5056986;28;20897;-77
2023/10/26 12:41:42;;;;;;;9.87;8.80;;;13.90;99.90;;;;;;5059244;28;20973;-83
2023/10/26 12:44:09;;;;;;;9.50;8.50;;;13.90;99.90;;;;;;5058001;28;20471;-84
2023/10/26 12:46:36;;;;;;;8.87;8.07;;;13.90;99.90;;;;;;5032884;28;20483;-83
2023/10/26 12:49:03;;;;;;;9.27;8.37;;;13.90;99.90;;;;;;5058473;28;20809;-83
2023/10/26 12:51:30;;;;;;;10.00;8.63;;;13.90;99.90;;;;;;5060357;28;20529;-82
2023/10/26 12:53:57;;;;;;;8.73;7.80;;;13.90;99.90;;;;;;5058516;28;20991;-83